Time;durP1;ratioP1;P1;durP2;ratioP2;P2;SDS_P1;SDS_P2;PMS_P1;PMS_P2;Temp;Humidity;BMP_temperature;BMP_pressure;BME280_temperature;BME280_humidity;BME280_pressure;Samples;Min_cycle;Max_cycle;Signal;HPM_P1;HPM_P2
2021/11/05 00:00:24;;;;;;;5.28;1.25;;;;;;;;;;5088073;28;20130;-64
2021/11/05 00:02:57;;;;;;;3.03;1.08;;;;;;;;;;5104739;28;20050;-64
2021/11/05 00:05:24;;;;;;;1.45;1.00;;;;;;;;;;5115611;28;20329;-64
2021/11/05 00:07:50;;;;;;;9.18;1.10;;;;;;;;;;5123468;28;20038;-63
2021/11/05 00:10:16;;;;;;;2.90;1.10;;;;;;;;;;5117032;28;20036;-64
2021/11/05 00:12:43;;;;;;;6.90;1.23;;;;;;;;;;5121892;28;20050;-64
2021/11/05 00:15:09;;;;;;;6.45;1.52;;;;;;;;;;5119872;28;20051;-64
2021/11/05 00:17:35;;;;;;;4.38;1.55;;;;;;;;;;5116760;28;20046;-64
2021/11/05 00:20:01;;;;;;;3.28;1.30;;;;;;;;;;5117758;28;20491;-64
2021/11/05 00:22:27;;;;;;;4.50;1.52;;;;;;;;;;5111551;28;20108;-64
2021/11/05 00:24:53;;;;;;;4.00;1.48;;;;;;;;;;5117642;28;20040;-64
2021/11/05 00:27:19;;;;;;;12.00;2.63;;;;;;;;;;5115704;28;20062;-64
2021/11/05 00:29:46;;;;;;;5.07;1.70;;;;;;;;;;5123020;28;20074;-63
2021/11/05 00:32:12;;;;;;;6.25;1.90;;;;;;;;;;5110106;28;20044;-63
2021/11/05 00:34:38;;;;;;;7.03;2.15;;;;;;;;;;5117510;28;20057;-65
2021/11/05 00:37:05;;;;;;;4.10;1.90;;;;;;;;;;5120849;28;20040;-63
2021/11/05 00:39:31;;;;;;;5.60;2.17;;;;;;;;;;5120879;28;20124;-63
2021/11/05 00:41:57;;;;;;;7.30;1.98;;;;;;;;;;5116071;28;20111;-63
2021/11/05 00:44:23;;;;;;;6.35;2.00;;;;;;;;;;5109867;28;20044;-63
2021/11/05 00:46:49;;;;;;;7.05;2.70;;;;;;;;;;5119418;28;20051;-63
2021/11/05 00:49:15;;;;;;;9.63;2.60;;;;;;;;;;5098153;28;20040;-63
2021/11/05 00:51:41;;;;;;;6.95;2.10;;;;;;;;;;5100158;28;20055;-64
2021/11/05 00:54:08;;;;;;;9.57;2.65;;;;;;;;;;5109706;28;20044;-64
2021/11/05 00:56:35;;;;;;;5.50;3.10;;;;;;;;;;5118127;28;20131;-64
2021/11/05 00:59:01;;;;;;;7.70;3.00;;;;;;;;;;5116078;28;20047;-63
2021/11/05 01:01:27;;;;;;;12.50;3.10;;;;;;;;;;5116536;28;20054;-63
2021/11/05 01:03:53;;;;;;;9.65;4.07;;;;;;;;;;5113096;28;20036;-63
2021/11/05 01:06:19;;;;;;;11.82;3.97;;;;;;;;;;5115390;28;20044;-63
2021/11/05 01:08:45;;;;;;;7.72;3.05;;;;;;;;;;5103679;28;20044;-63
2021/11/05 01:11:11;;;;;;;15.05;3.90;;;;;;;;;;5114876;28;20269;-63
2021/11/05 01:13:38;;;;;;;11.07;3.35;;;;;;;;;;5113222;28;20043;-63
2021/11/05 01:16:05;;;;;;;9.48;3.30;;;;;;;;;;5114448;28;20042;-63
2021/11/05 01:18:31;;;;;;;10.73;3.42;;;;;;;;;;5108398;28;20557;-63
2021/11/05 01:20:57;;;;;;;4.43;3.30;;;;;;;;;;5089513;28;20484;-64
2021/11/05 01:23:23;;;;;;;9.77;3.40;;;;;;;;;;5121474;28;20046;-64
2021/11/05 01:25:50;;;;;;;13.77;4.30;;;;;;;;;;5113044;28;20039;-63
2021/11/05 01:28:16;;;;;;;11.65;3.58;;;;;;;;;;5120869;28;20054;-64
2021/11/05 01:30:42;;;;;;;13.30;3.28;;;;;;;;;;5099427;28;20051;-63
2021/11/05 01:33:08;;;;;;;4.50;2.90;;;;;;;;;;5115986;28;20069;-63
2021/11/05 01:35:36;;;;;;;16.90;3.90;;;;;;;;;;5119532;28;20130;-63
2021/11/05 01:38:03;;;;;;;18.23;4.15;;;;;;;;;;5115941;28;20043;-63
2021/11/05 01:40:29;;;;;;;6.70;3.75;;;;;;;;;;5121866;28;20051;-63
2021/11/05 01:42:55;;;;;;;13.80;5.22;;;;;;;;;;5123430;28;20043;-63
2021/11/05 01:45:22;;;;;;;8.57;3.97;;;;;;;;;;5115496;28;20081;-65
2021/11/05 01:47:48;;;;;;;9.85;4.60;;;;;;;;;;5118651;28;20043;-64
2021/11/05 01:50:14;;;;;;;11.65;4.47;;;;;;;;;;5124700;28;20063;-63
2021/11/05 01:52:41;;;;;;;10.27;5.40;;;;;;;;;;5125197;28;20439;-63
2021/11/05 01:55:08;;;;;;;11.32;5.05;;;;;;;;;;5116956;28;20040;-63
2021/11/05 01:57:35;;;;;;;11.77;5.77;;;;;;;;;;5124577;28;20069;-63
2021/11/05 02:00:01;;;;;;;13.43;6.00;;;;;;;;;;5118960;28;20302;-63
2021/11/05 02:02:27;;;;;;;13.95;6.18;;;;;;;;;;5122746;28;20027;-63
2021/11/05 02:04:53;;;;;;;25.17;5.60;;;;;;;;;;5119925;28;20043;-63
2021/11/05 02:07:22;;;;;;;14.52;6.32;;;;;;;;;;5120361;28;20040;-63
2021/11/05 02:09:48;;;;;;;11.63;6.20;;;;;;;;;;5121649;28;20559;-63
2021/11/05 02:12:15;;;;;;;10.05;6.63;;;;;;;;;;5118646;28;20510;-63
2021/11/05 02:14:44;;;;;;;13.27;6.47;;;;;;;;;;5123672;28;20040;-63
2021/11/05 02:17:10;;;;;;;10.05;5.88;;;;;;;;;;5117395;28;20125;-63
2021/11/05 02:19:37;;;;;;;13.13;5.88;;;;;;;;;;5123698;28;20076;-63
2021/11/05 02:22:03;;;;;;;12.52;6.50;;;;;;;;;;5107130;28;20047;-63
2021/11/05 02:24:30;;;;;;;9.65;5.15;;;;;;;;;;5122306;28;20604;-63
2021/11/05 02:26:57;;;;;;;19.33;5.47;;;;;;;;;;5115657;28;20406;-63
2021/11/05 02:29:25;;;;;;;9.80;4.25;;;;;;;;;;5126821;28;20051;-63
2021/11/05 02:31:51;;;;;;;8.07;3.80;;;;;;;;;;5116640;28;20062;-63
2021/11/05 02:34:18;;;;;;;16.88;4.55;;;;;;;;;;5121933;28;20063;-63
2021/11/05 02:36:44;;;;;;;14.15;4.88;;;;;;;;;;5094542;28;20044;-63
2021/11/05 02:39:10;;;;;;;10.65;4.97;;;;;;;;;;5121137;28;20039;-63
2021/11/05 02:41:40;;;;;;;11.45;4.65;;;;;;;;;;5095773;28;20426;-63
2021/11/05 02:44:06;;;;;;;10.35;4.40;;;;;;;;;;5121128;28;20039;-63
2021/11/05 02:46:33;;;;;;;11.70;3.83;;;;;;;;;;5113116;28;20047;-63
2021/11/05 02:49:00;;;;;;;11.98;4.28;;;;;;;;;;5121322;28;20065;-63
2021/11/05 02:51:27;;;;;;;15.05;5.28;;;;;;;;;;5112546;28;20040;-62
2021/11/05 02:53:53;;;;;;;20.35;4.85;;;;;;;;;;5119241;28;20096;-63
2021/11/05 02:56:19;;;;;;;7.70;3.78;;;;;;;;;;5114001;28;20071;-64
2021/11/05 02:58:45;;;;;;;10.15;4.15;;;;;;;;;;5117767;28;20039;-63
2021/11/05 03:01:11;;;;;;;15.10;4.13;;;;;;;;;;5116017;28;20096;-63
2021/11/05 03:03:37;;;;;;;7.18;3.58;;;;;;;;;;5115955;28;20504;-63
2021/11/05 03:06:04;;;;;;;12.50;3.60;;;;;;;;;;5117178;28;20040;-63
2021/11/05 03:08:30;;;;;;;9.98;3.47;;;;;;;;;;5113604;28;20048;-63
2021/11/05 03:10:56;;;;;;;11.82;3.53;;;;;;;;;;5116839;28;20047;-63
2021/11/05 03:13:22;;;;;;;12.98;3.72;;;;;;;;;;5112799;28;20044;-63
2021/11/05 03:15:48;;;;;;;8.85;2.97;;;;;;;;;;5101690;28;20487;-63
2021/11/05 03:18:16;;;;;;;10.18;2.83;;;;;;;;;;5112571;28;20048;-63
2021/11/05 03:20:43;;;;;;;9.07;3.05;;;;;;;;;;5101228;28;20048;-63
2021/11/05 03:23:09;;;;;;;7.28;2.00;;;;;;;;;;5123250;28;20181;-63
2021/11/05 03:25:35;;;;;;;7.10;2.30;;;;;;;;;;5118367;28;20039;-62
2021/11/05 03:28:01;;;;;;;8.63;2.53;;;;;;;;;;5108477;28;20103;-62
2021/11/05 03:30:27;;;;;;;13.95;2.60;;;;;;;;;;5118452;28;20043;-62
2021/11/05 03:32:53;;;;;;;5.20;2.22;;;;;;;;;;5103515;28;20071;-62
2021/11/05 03:35:19;;;;;;;6.43;2.05;;;;;;;;;;5116405;28;20422;-62
2021/11/05 03:37:46;;;;;;;9.50;2.00;;;;;;;;;;5102977;28;20039;-62
2021/11/05 03:40:13;;;;;;;10.23;2.20;;;;;;;;;;5114640;28;20075;-63
2021/11/05 03:42:40;;;;;;;6.82;2.00;;;;;;;;;;5124293;28;20073;-65
2021/11/05 03:45:07;;;;;;;11.23;1.95;;;;;;;;;;5116835;28;20086;-63
2021/11/05 03:47:33;;;;;;;5.22;1.85;;;;;;;;;;5123652;28;20103;-63
2021/11/05 03:49:59;;;;;;;9.07;1.90;;;;;;;;;;5110883;28;20036;-63
2021/11/05 03:52:25;;;;;;;7.40;2.53;;;;;;;;;;5095060;28;20073;-63
2021/11/05 03:54:51;;;;;;;8.00;2.38;;;;;;;;;;5093482;28;20058;-63
2021/11/05 03:57:17;;;;;;;3.63;1.50;;;;;;;;;;5100492;28;20502;-64
2021/11/05 03:59:44;;;;;;;15.90;2.97;;;;;;;;;;5112521;28;20094;-63
2021/11/05 04:02:10;;;;;;;9.40;1.75;;;;;;;;;;5117731;28;20126;-63
2021/11/05 04:04:36;;;;;;;9.27;1.40;;;;;;;;;;5115474;28;20070;-63
2021/11/05 04:07:02;;;;;;;6.72;1.45;;;;;;;;;;5115333;28;20048;-63
2021/11/05 04:09:28;;;;;;;5.97;1.55;;;;;;;;;;5110862;28;20040;-63
2021/11/05 04:11:54;;;;;;;10.73;3.55;;;;;;;;;;5095278;28;20305;-63
2021/11/05 04:14:20;;;;;;;5.82;1.50;;;;;;;;;;5119051;28;20167;-64
2021/11/05 04:16:46;;;;;;;7.18;1.80;;;;;;;;;;5093939;28;20044;-63
2021/11/05 04:19:12;;;;;;;7.05;1.98;;;;;;;;;;5115980;28;20044;-63
2021/11/05 04:21:39;;;;;;;7.57;1.92;;;;;;;;;;5095950;28;20073;-63
2021/11/05 04:24:06;;;;;;;5.72;1.48;;;;;;;;;;5119130;28;20043;-63
2021/11/05 04:26:33;;;;;;;4.28;1.63;;;;;;;;;;5111589;28;20040;-63
2021/11/05 04:28:59;;;;;;;12.73;2.50;;;;;;;;;;5115835;28;20048;-63
2021/11/05 04:31:25;;;;;;;15.88;1.98;;;;;;;;;;5112662;28;20532;-63
2021/11/05 04:33:51;;;;;;;13.60;1.75;;;;;;;;;;5109928;28;20039;-63
2021/11/05 04:36:21;;;;;;;10.63;2.90;;;;;;;;;;5109509;28;20042;-64
2021/11/05 04:38:48;;;;;;;12.52;2.28;;;;;;;;;;5099095;28;20080;-63
2021/11/05 04:41:14;;;;;;;5.70;1.90;;;;;;;;;;5109755;28;20076;-63
2021/11/05 04:43:40;;;;;;;5.60;1.73;;;;;;;;;;5111410;28;20082;-63
2021/11/05 04:46:07;;;;;;;13.50;2.15;;;;;;;;;;5105311;28;20059;-63
2021/11/05 04:48:33;;;;;;;15.45;2.00;;;;;;;;;;5112518;28;20472;-63
2021/11/05 04:50:59;;;;;;;13.35;1.90;;;;;;;;;;5119881;28;20414;-63
2021/11/05 04:53:25;;;;;;;7.75;1.80;;;;;;;;;;5113167;28;20085;-63
2021/11/05 04:55:51;;;;;;;3.67;1.70;;;;;;;;;;5119384;28;20032;-63
2021/11/05 04:58:17;;;;;;;7.90;1.92;;;;;;;;;;5112694;28;20051;-63
2021/11/05 05:00:43;;;;;;;11.95;2.00;;;;;;;;;;5119982;28;20051;-63
2021/11/05 05:03:09;;;;;;;16.17;2.25;;;;;;;;;;5114225;28;20048;-63
2021/11/05 05:05:36;;;;;;;11.70;1.67;;;;;;;;;;5096072;28;20035;-63
2021/11/05 05:08:02;;;;;;;7.57;2.47;;;;;;;;;;5115607;28;20040;-63
2021/11/05 05:10:28;;;;;;;9.48;1.92;;;;;;;;;;5115925;28;20054;-63
2021/11/05 05:12:55;;;;;;;9.07;2.92;;;;;;;;;;5099424;28;20054;-63
2021/11/05 05:15:22;;;;;;;7.65;2.58;;;;;;;;;;5111664;28;20112;-63
2021/11/05 05:17:48;;;;;;;9.95;2.28;;;;;;;;;;5093125;28;20047;-63
2021/11/05 05:20:15;;;;;;;10.48;1.70;;;;;;;;;;5098153;28;20138;-63
2021/11/05 05:22:42;;;;;;;4.95;1.20;;;;;;;;;;5123713;28;20483;-63
2021/11/05 05:25:09;;;;;;;8.55;2.00;;;;;;;;;;5123514;28;20044;-63
2021/11/05 05:27:36;;;;;;;4.50;1.60;;;;;;;;;;5116988;28;20498;-63
2021/11/05 05:30:02;;;;;;;6.57;1.65;;;;;;;;;;5113929;28;20040;-63
2021/11/05 05:32:28;;;;;;;9.02;1.95;;;;;;;;;;5110329;28;20093;-63
2021/11/05 05:34:54;;;;;;;8.52;1.83;;;;;;;;;;5118079;28;20058;-63
2021/11/05 05:37:20;;;;;;;8.50;2.40;;;;;;;;;;5115224;28;20100;-63
2021/11/05 05:39:46;;;;;;;7.80;1.85;;;;;;;;;;5097557;28;20054;-64
2021/11/05 05:42:12;;;;;;;5.43;1.50;;;;;;;;;;5112850;28;20058;-63
2021/11/05 05:44:38;;;;;;;3.00;1.58;;;;;;;;;;5102119;28;20100;-63
2021/11/05 05:47:06;;;;;;;7.97;1.88;;;;;;;;;;5111628;28;20051;-64
2021/11/05 05:49:32;;;;;;;16.58;2.58;;;;;;;;;;5115460;28;20054;-63
2021/11/05 05:51:58;;;;;;;4.07;1.38;;;;;;;;;;5114872;28;20043;-63
2021/11/05 05:54:24;;;;;;;6.50;1.65;;;;;;;;;;5114883;28;20043;-63
2021/11/05 05:56:50;;;;;;;9.27;2.00;;;;;;;;;;5112957;28;20036;-63
2021/11/05 05:59:19;;;;;;;10.43;1.67;;;;;;;;;;5126265;28;20073;-63
2021/11/05 06:01:45;;;;;;;6.75;1.50;;;;;;;;;;5113585;28;20047;-63
2021/11/05 06:04:11;;;;;;;7.03;1.45;;;;;;;;;;5115954;28;20036;-64
2021/11/05 06:06:37;;;;;;;3.88;1.70;;;;;;;;;;5107851;28;20043;-64
2021/11/05 06:09:03;;;;;;;7.55;1.98;;;;;;;;;;5122973;28;20047;-64
2021/11/05 06:11:29;;;;;;;7.22;2.08;;;;;;;;;;5115771;28;20157;-64
2021/11/05 06:13:55;;;;;;;12.85;1.92;;;;;;;;;;5120504;28;20089;-64
2021/11/05 06:16:21;;;;;;;6.80;1.52;;;;;;;;;;5102136;28;20052;-64
2021/11/05 06:18:48;;;;;;;10.85;2.25;;;;;;;;;;5122759;28;20040;-64
2021/11/05 06:21:14;;;;;;;11.25;2.17;;;;;;;;;;5122015;28;20048;-64
2021/11/05 06:23:40;;;;;;;14.02;2.13;;;;;;;;;;5117011;28;20043;-64
2021/11/05 06:26:06;;;;;;;7.68;2.15;;;;;;;;;;5105103;28;20078;-64
2021/11/05 06:28:32;;;;;;;9.52;2.35;;;;;;;;;;5116928;28;20097;-64
2021/11/05 06:30:58;;;;;;;6.38;2.08;;;;;;;;;;5119074;28;20039;-64
2021/11/05 06:33:24;;;;;;;7.82;1.58;;;;;;;;;;5108255;28;20056;-64
2021/11/05 06:35:50;;;;;;;7.43;1.98;;;;;;;;;;5121263;28;20048;-64
2021/11/05 06:38:17;;;;;;;13.13;3.00;;;;;;;;;;5125486;28;20099;-63
2021/11/05 06:40:43;;;;;;;4.57;1.40;;;;;;;;;;5116133;28;20053;-64
2021/11/05 06:43:09;;;;;;;10.43;2.65;;;;;;;;;;5112196;28;20604;-64
2021/11/05 06:45:35;;;;;;;3.40;1.48;;;;;;;;;;5121353;28;20427;-64
2021/11/05 06:48:01;;;;;;;7.15;1.85;;;;;;;;;;5115590;28;20043;-64
2021/11/05 06:50:28;;;;;;;16.33;2.17;;;;;;;;;;5100528;28;20121;-64
2021/11/05 06:52:54;;;;;;;8.43;1.65;;;;;;;;;;5100010;28;20491;-64
2021/11/05 06:55:20;;;;;;;7.10;2.03;;;;;;;;;;5115583;28;20130;-64
2021/11/05 06:57:46;;;;;;;7.50;1.60;;;;;;;;;;5124111;28;20043;-64
2021/11/05 07:00:13;;;;;;;8.80;1.55;;;;;;;;;;5098296;28;20081;-64
2021/11/05 07:02:42;;;;;;;10.35;2.60;;;;;;;;;;5122881;28;20090;-64
2021/11/05 07:05:12;;;;;;;7.60;1.95;;;;;;;;;;5110582;28;20036;-64
2021/11/05 07:07:38;;;;;;;7.28;1.90;;;;;;;;;;5122034;28;20134;-64
2021/11/05 07:10:05;;;;;;;8.80;1.85;;;;;;;;;;5115609;28;20043;-64
2021/11/05 07:12:32;;;;;;;8.57;1.80;;;;;;;;;;5123055;28;20510;-64
2021/11/05 07:14:58;;;;;;;7.68;1.60;;;;;;;;;;5118103;28;20105;-64
2021/11/05 07:17:24;;;;;;;11.70;2.50;;;;;;;;;;5119575;28;20404;-64
2021/11/05 07:19:50;;;;;;;4.55;1.55;;;;;;;;;;5121500;28;20482;-64
2021/11/05 07:22:17;;;;;;;10.85;1.77;;;;;;;;;;5119402;28;20507;-64
2021/11/05 07:24:44;;;;;;;2.88;1.42;;;;;;;;;;5102839;28;20048;-64
2021/11/05 07:27:11;;;;;;;5.50;1.92;;;;;;;;;;5109570;28;20069;-64
2021/11/05 07:29:37;;;;;;;6.63;1.55;;;;;;;;;;5114057;28;20051;-64
2021/11/05 07:32:07;;;;;;;5.03;1.35;;;;;;;;;;5098198;28;20039;-64
2021/11/05 07:34:33;;;;;;;9.70;1.77;;;;;;;;;;5123540;28;20074;-64
2021/11/05 07:37:04;;;;;;;8.18;2.15;;;;;;;;;;5109759;28;20066;-64
2021/11/05 07:39:30;;;;;;;5.15;1.27;;;;;;;;;;5113701;28;20043;-64
2021/11/05 07:41:57;;;;;;;4.18;1.33;;;;;;;;;;5118975;28;20052;-64
2021/11/05 07:44:23;;;;;;;6.35;1.67;;;;;;;;;;5110059;28;20036;-64
2021/11/05 07:46:49;;;;;;;7.25;1.23;;;;;;;;;;5115223;28;20126;-64
2021/11/05 07:49:16;;;;;;;6.40;1.65;;;;;;;;;;5094357;28;20052;-64
2021/11/05 07:51:42;;;;;;;4.88;1.20;;;;;;;;;;5116162;28;20051;-64
2021/11/05 07:54:09;;;;;;;5.97;1.20;;;;;;;;;;5121518;28;20107;-64
2021/11/05 07:56:36;;;;;;;8.38;1.52;;;;;;;;;;5110966;28;20415;-64
2021/11/05 07:59:02;;;;;;;7.25;1.33;;;;;;;;;;5112341;28;20043;-64
2021/11/05 08:01:29;;;;;;;7.18;1.08;;;;;;;;;;5112606;28;20048;-64
2021/11/05 08:03:55;;;;;;;4.88;1.25;;;;;;;;;;5119682;28;20031;-64
2021/11/05 08:06:21;;;;;;;6.15;1.15;;;;;;;;;;5114895;28;20078;-64
2021/11/05 08:08:47;;;;;;;5.93;1.20;;;;;;;;;;5115966;28;20127;-64
2021/11/05 08:11:13;;;;;;;5.07;1.23;;;;;;;;;;5099624;28;20058;-64
2021/11/05 08:13:40;;;;;;;11.93;2.00;;;;;;;;;;5116458;28;20044;-64
2021/11/05 08:16:06;;;;;;;7.05;1.10;;;;;;;;;;5120187;28;20031;-64
2021/11/05 08:18:32;;;;;;;4.70;1.50;;;;;;;;;;5111238;28;20039;-64
2021/11/05 08:20:58;;;;;;;4.55;1.48;;;;;;;;;;5116771;28;20044;-64
2021/11/05 08:23:25;;;;;;;9.38;2.35;;;;;;;;;;5089127;28;20340;-64
2021/11/05 08:25:51;;;;;;;6.95;1.83;;;;;;;;;;5114707;28;20043;-64
2021/11/05 08:28:18;;;;;;;3.85;1.52;;;;;;;;;;5112191;28;20040;-64
2021/11/05 08:30:45;;;;;;;4.37;1.23;;;;;;;;;;5097755;28;20048;-65
2021/11/05 08:33:11;;;;;;;8.43;1.92;;;;;;;;;;5117534;28;20559;-65
2021/11/05 08:35:38;;;;;;;6.25;1.55;;;;;;;;;;5116471;28;20048;-64
2021/11/05 08:38:08;;;;;;;5.22;1.50;;;;;;;;;;5122738;28;20079;-65
2021/11/05 08:40:35;;;;;;;9.98;1.65;;;;;;;;;;5110596;28;20063;-65
2021/11/05 08:43:01;;;;;;;6.80;1.40;;;;;;;;;;5116195;28;20062;-65
2021/11/05 08:45:27;;;;;;;9.90;1.30;;;;;;;;;;5116156;28;20177;-65
2021/11/05 08:47:54;;;;;;;5.75;1.45;;;;;;;;;;5114677;28;20399;-65
2021/11/05 08:50:23;;;;;;;5.30;1.17;;;;;;;;;;5113049;28;20042;-65
2021/11/05 08:52:49;;;;;;;6.10;1.50;;;;;;;;;;5115101;28;20168;-65
2021/11/05 08:55:16;;;;;;;5.50;1.60;;;;;;;;;;5113027;28;20122;-65
2021/11/05 08:57:42;;;;;;;5.10;1.17;;;;;;;;;;5125840;28;20088;-65
2021/11/05 09:00:13;;;;;;;5.10;1.50;;;;;;;;;;5095256;28;20052;-65
2021/11/05 09:02:40;;;;;;;5.72;1.35;;;;;;;;;;5110149;28;20119;-65
2021/11/05 09:05:06;;;;;;;9.73;1.67;;;;;;;;;;5090939;28;20084;-65
2021/11/05 09:07:33;;;;;;;6.97;1.35;;;;;;;;;;5124995;28;20055;-65
2021/11/05 09:09:59;;;;;;;7.97;2.20;;;;;;;;;;5119001;28;20107;-65
2021/11/05 09:12:25;;;;;;;7.53;1.50;;;;;;;;;;5097783;28;20454;-65
2021/11/05 09:14:51;;;;;;;9.38;1.92;;;;;;;;;;5123328;28;20044;-65
2021/11/05 09:17:18;;;;;;;5.75;1.55;;;;;;;;;;5121363;28;20095;-65
2021/11/05 09:19:44;;;;;;;5.15;1.52;;;;;;;;;;5114341;28;20672;-70
2021/11/05 09:22:10;;;;;;;6.65;1.40;;;;;;;;;;5117067;28;20040;-70
2021/11/05 09:24:36;;;;;;;5.90;1.50;;;;;;;;;;5116401;28;20032;-71
2021/11/05 09:27:02;;;;;;;5.88;0.88;;;;;;;;;;5122618;28;20036;-69
2021/11/05 09:29:29;;;;;;;5.90;1.10;;;;;;;;;;5118498;28;20040;-71
2021/11/05 09:31:55;;;;;;;7.70;1.67;;;;;;;;;;5109100;28;20124;-78
2021/11/05 09:34:22;;;;;;;5.57;1.23;;;;;;;;;;5114106;28;20096;-73
2021/11/05 09:36:48;;;;;;;2.10;0.85;;;;;;;;;;5113876;28;20071;-73
2021/11/05 09:39:14;;;;;;;7.28;1.23;;;;;;;;;;5117808;28;20461;-67
2021/11/05 09:41:41;;;;;;;7.03;1.40;;;;;;;;;;5096652;28;20123;-74
2021/11/05 09:44:07;;;;;;;4.72;0.80;;;;;;;;;;5096172;28;20051;-65
2021/11/05 09:46:35;;;;;;;6.28;1.45;;;;;;;;;;5113533;28;20067;-66
2021/11/05 09:49:01;;;;;;;2.78;1.05;;;;;;;;;;5122733;28;20039;-66
2021/11/05 09:51:28;;;;;;;4.63;1.20;;;;;;;;;;5115018;28;20530;-66
2021/11/05 09:53:58;;;;;;;2.70;0.90;;;;;;;;;;5098158;28;20036;-66
2021/11/05 09:56:24;;;;;;;4.57;0.70;;;;;;;;;;5119957;28;20119;-66
2021/11/05 09:58:50;;;;;;;3.58;0.80;;;;;;;;;;5114112;28;20158;-65
2021/11/05 10:01:17;;;;;;;2.53;0.52;;;;;;;;;;5113566;28;20054;-66
2021/11/05 10:03:43;;;;;;;5.57;0.98;;;;;;;;;;5111205;28;20040;-66
2021/11/05 10:06:10;;;;;;;5.78;0.73;;;;;;;;;;5096331;28;20079;-66
2021/11/05 10:08:37;;;;;;;4.22;0.68;;;;;;;;;;5119594;28;20094;-66
2021/11/05 10:11:21;;;;;;;3.90;0.80;;;;;;;;;;5093783;28;20047;-66
2021/11/05 10:13:48;;;;;;;5.53;0.70;;;;;;;;;;5121714;28;20060;-66
2021/11/05 10:16:15;;;;;;;5.70;0.73;;;;;;;;;;5117062;28;20687;-66
2021/11/05 10:18:55;;;;;;;4.00;0.68;;;;;;;;;;5118598;28;20059;-66
2021/11/05 10:21:22;;;;;;;3.28;0.98;;;;;;;;;;5119897;28;20047;-66
2021/11/05 10:23:48;;;;;;;3.40;0.65;;;;;;;;;;5112494;28;20180;-66
2021/11/05 10:26:27;;;;;;;3.53;0.55;;;;;;;;;;5109390;28;20040;-66
2021/11/05 10:28:53;;;;;;;2.58;0.60;;;;;;;;;;5111808;28;20040;-67
2021/11/05 10:31:20;;;;;;;2.47;0.70;;;;;;;;;;5096628;28;20079;-70
2021/11/05 10:33:47;;;;;;;3.60;0.80;;;;;;;;;;5120110;28;20044;-69
2021/11/05 10:36:15;;;;;;;2.20;0.60;;;;;;;;;;5118043;28;20048;-70
2021/11/05 10:38:43;;;;;;;3.58;0.70;;;;;;;;;;5113692;28;20086;-67
2021/11/05 10:41:10;;;;;;;6.70;0.95;;;;;;;;;;5114776;28;20400;-71
2021/11/05 10:43:40;;;;;;;6.00;0.50;;;;;;;;;;5113531;28;20559;-73
2021/11/05 10:46:08;;;;;;;2.67;0.50;;;;;;;;;;5094704;28;20059;-71
2021/11/05 10:48:40;;;;;;;7.47;1.02;;;;;;;;;;5119467;28;20042;-67
2021/11/05 10:51:08;;;;;;;4.10;0.63;;;;;;;;;;5117145;28;20039;-66
2021/11/05 10:53:38;;;;;;;3.25;0.73;;;;;;;;;;5087092;28;20044;-68
2021/11/05 10:56:16;;;;;;;3.90;1.00;;;;;;;;;;5082655;28;20043;-71
2021/11/05 10:58:51;;;;;;;4.70;0.85;;;;;;;;;;5105692;28;20112;-79
2021/11/05 11:01:19;;;;;;;3.08;0.95;;;;;;;;;;5092218;28;20052;-75
2021/11/05 11:03:45;;;;;;;2.38;0.55;;;;;;;;;;5117317;28;20043;-70
2021/11/05 11:06:17;;;;;;;3.53;0.60;;;;;;;;;;5092955;28;20111;-70
2021/11/05 11:08:44;;;;;;;5.38;0.80;;;;;;;;;;5109483;28;20052;-71
2021/11/05 11:11:16;;;;;;;4.13;0.52;;;;;;;;;;5112074;28;20071;-75
2021/11/05 11:13:42;;;;;;;2.58;0.63;;;;;;;;;;5093450;28;20103;-75
2021/11/05 11:16:16;;;;;;;3.67;0.45;;;;;;;;;;5110028;28;20418;-76
2021/11/05 11:18:47;;;;;;;6.47;0.45;;;;;;;;;;5120368;28;20095;-75
2021/11/05 11:21:13;;;;;;;7.97;0.68;;;;;;;;;;5122482;28;20055;-71
2021/11/05 11:23:40;;;;;;;3.72;0.70;;;;;;;;;;5101552;28;20036;-72
2021/11/05 11:26:07;;;;;;;5.35;0.65;;;;;;;;;;5095653;28;20044;-74
2021/11/05 11:28:33;;;;;;;2.30;0.52;;;;;;;;;;5093391;28;20082;-71
2021/11/05 11:30:59;;;;;;;8.93;0.70;;;;;;;;;;5103761;28;20090;-71
2021/11/05 11:33:25;;;;;;;5.03;0.82;;;;;;;;;;5120168;28;20096;-75
2021/11/05 11:35:51;;;;;;;3.97;0.57;;;;;;;;;;5097440;28;20161;-75
2021/11/05 11:38:20;;;;;;;3.90;0.52;;;;;;;;;;5119583;28;20122;-71
2021/11/05 11:40:47;;;;;;;3.38;0.70;;;;;;;;;;5114583;28;20044;-75
2021/11/05 11:43:15;;;;;;;2.45;0.65;;;;;;;;;;5120240;28;20062;-77
2021/11/05 11:45:45;;;;;;;3.97;0.82;;;;;;;;;;5109166;28;20047;-71
2021/11/05 11:48:12;;;;;;;5.35;0.70;;;;;;;;;;5099708;28;20377;-76
2021/11/05 11:50:38;;;;;;;5.13;0.88;;;;;;;;;;5118226;28;20124;-71
2021/11/05 11:53:04;;;;;;;4.65;0.90;;;;;;;;;;5116878;28;20047;-79
2021/11/05 11:55:31;;;;;;;3.70;0.85;;;;;;;;;;5119616;28;20098;-68
2021/11/05 11:58:17;;;;;;;5.38;1.20;;;;;;;;;;5101088;28;20043;-73
2021/11/05 12:00:45;;;;;;;6.47;1.00;;;;;;;;;;5112268;28;20058;-75
2021/11/05 12:03:28;;;;;;;8.95;1.27;;;;;;;;;;5116865;28;20044;-75
2021/11/05 12:05:58;;;;;;;5.97;0.98;;;;;;;;;;5115221;28;20093;-83
2021/11/05 12:08:30;;;;;;;4.43;0.75;;;;;;;;;;5113784;28;20078;-84
2021/11/05 12:11:02;;;;;;;4.57;0.77;;;;;;;;;;5122119;28;20047;-83
2021/11/05 12:13:34;;;;;;;10.05;1.08;;;;;;;;;;5110180;28;20083;-84
2021/11/05 12:16:18;;;;;;;4.25;1.10;;;;;;;;;;5115487;28;20402;-68
2021/11/05 12:19:11;;;;;;;5.10;1.02;;;;;;;;;;5110794;28;20055;-70
2021/11/05 12:21:38;;;;;;;3.35;0.52;;;;;;;;;;5118180;28;20438;-70
2021/11/05 12:26:44;;;;;;;9.77;1.65;;;;;;;;;;5097055;28;20051;-69
2021/11/05 12:29:11;;;;;;;4.60;0.90;;;;;;;;;;5112193;28;20567;-69
2021/11/05 12:31:44;;;;;;;3.40;1.00;;;;;;;;;;5111300;28;20047;-70
2021/11/05 12:34:35;;;;;;;5.05;1.10;;;;;;;;;;5102681;28;20470;-70
2021/11/05 12:37:02;;;;;;;4.10;1.02;;;;;;;;;;5093801;28;20066;-73
2021/11/05 12:39:28;;;;;;;12.55;1.55;;;;;;;;;;5100490;28;20075;-72
2021/11/05 12:42:17;;;;;;;5.22;1.00;;;;;;;;;;5087372;28;20048;-72
2021/11/05 12:44:53;;;;;;;9.07;1.35;;;;;;;;;;5095918;28;20052;-72
2021/11/05 12:47:37;;;;;;;6.95;1.73;;;;;;;;;;5102087;28;20040;-72
2021/11/05 12:50:04;;;;;;;7.82;1.15;;;;;;;;;;5096556;28;20087;-72
2021/11/05 12:52:30;;;;;;;6.35;1.00;;;;;;;;;;5095215;28;20100;-73
2021/11/05 12:55:00;;;;;;;7.07;1.05;;;;;;;;;;5068622;28;20040;-73
2021/11/05 12:57:26;;;;;;;5.70;1.10;;;;;;;;;;5090371;28;20071;-73
2021/11/05 12:59:52;;;;;;;4.35;1.05;;;;;;;;;;5100090;28;20100;-73
2021/11/05 13:02:20;;;;;;;5.30;1.70;;;;;;;;;;5094865;28;20043;-73
2021/11/05 13:04:50;;;;;;;9.70;1.27;;;;;;;;;;5097816;28;20043;-71
2021/11/05 13:07:17;;;;;;;8.55;1.30;;;;;;;;;;5086980;28;20392;-73
2021/11/05 13:09:44;;;;;;;4.95;1.10;;;;;;;;;;5094366;28;20048;-73
2021/11/05 13:12:15;;;;;;;7.38;1.20;;;;;;;;;;5090446;28;20048;-74
2021/11/05 13:14:54;;;;;;;8.90;1.92;;;;;;;;;;5096716;28;20123;-74
2021/11/05 13:17:42;;;;;;;7.93;1.23;;;;;;;;;;5094585;28;20044;-72
2021/11/05 13:20:10;;;;;;;6.13;1.27;;;;;;;;;;5096299;28;20059;-66
2021/11/05 13:22:36;;;;;;;;;;;;;;;;;;5094063;28;20039;-73
2021/11/05 13:25:12;;;;;;;5.97;1.05;;;;;;;;;;5087056;28;19956;-71
2021/11/05 13:27:39;;;;;;;4.70;0.98;;;;;;;;;;5093904;28;20028;-71
2021/11/05 13:30:05;;;;;;;7.75;1.45;;;;;;;;;;5097150;28;20048;-71
2021/11/05 13:32:32;;;;;;;6.43;1.27;;;;;;;;;;5096301;28;20040;-67
2021/11/05 13:34:58;;;;;;;4.82;0.98;;;;;;;;;;5095056;28;20040;-79
2021/11/05 13:37:28;;;;;;;5.05;0.63;;;;;;;;;;5091969;28;20040;-76
2021/11/05 13:39:55;;;;;;;12.30;1.98;;;;;;;;;;5102787;28;20063;-78
2021/11/05 13:42:24;;;;;;;8.68;1.25;;;;;;;;;;5122035;28;20043;-82
2021/11/05 13:45:02;;;;;;;8.20;1.30;;;;;;;;;;5099699;28;20036;-83
2021/11/05 13:47:28;;;;;;;6.45;1.27;;;;;;;;;;5097079;28;20071;-75
2021/11/05 13:49:58;;;;;;;5.22;0.50;;;;;;;;;;5122815;28;20047;-78
2021/11/05 13:52:24;;;;;;;4.78;0.77;;;;;;;;;;5124499;28;20058;-80
2021/11/05 13:54:50;;;;;;;7.55;1.30;;;;;;;;;;5098501;28;20049;-75
2021/11/05 13:57:17;;;;;;;7.10;1.00;;;;;;;;;;5113374;28;20122;-70
2021/11/05 13:59:49;;;;;;;5.70;1.10;;;;;;;;;;5112141;28;20422;-71
2021/11/05 14:02:15;;;;;;;11.80;1.30;;;;;;;;;;5123079;28;20047;-70
2021/11/05 14:04:41;;;;;;;5.60;1.27;;;;;;;;;;5113118;28;20046;-70
2021/11/05 14:07:11;;;;;;;6.30;1.00;;;;;;;;;;5118057;28;20043;-70
2021/11/05 14:09:37;;;;;;;7.97;1.23;;;;;;;;;;5103431;28;20069;-75
2021/11/05 14:12:10;;;;;;;5.32;1.10;;;;;;;;;;5119449;28;20044;-73
2021/11/05 14:14:36;;;;;;;4.07;0.85;;;;;;;;;;5118953;28;20066;-73
2021/11/05 14:17:03;;;;;;;4.35;0.88;;;;;;;;;;5097796;28;20043;-71
2021/11/05 14:19:31;;;;;;;4.30;0.93;;;;;;;;;;5116553;28;20051;-68
2021/11/05 14:22:01;;;;;;;4.28;0.90;;;;;;;;;;5116311;28;20052;-64
2021/11/05 14:24:33;;;;;;;6.22;0.85;;;;;;;;;;5114359;28;20103;-64
2021/11/05 14:27:13;;;;;;;5.55;1.15;;;;;;;;;;5116893;28;20039;-64
2021/11/05 14:29:40;;;;;;;5.78;0.90;;;;;;;;;;5110240;28;20055;-64
2021/11/05 14:32:06;;;;;;;;;;;;;;;;;;5115209;28;20074;-64
2021/11/05 14:34:48;;;;;;;7.93;1.42;;;;;;;;;;5115245;28;19928;-64
2021/11/05 14:37:19;;;;;;;3.58;0.93;;;;;;;;;;5098689;28;20051;-65
2021/11/05 14:39:54;;;;;;;5.72;1.00;;;;;;;;;;5119960;28;20039;-66
2021/11/05 14:42:21;;;;;;;7.80;1.20;;;;;;;;;;5094762;28;20251;-65
2021/11/05 14:44:48;;;;;;;2.40;0.50;;;;;;;;;;5098441;28;20050;-63